Time;durP1;ratioP1;P1;durP2;ratioP2;P2;SDS_P1;SDS_P2;PMS_P1;PMS_P2;Temp;Humidity;BMP_temperature;BMP_pressure;BME280_temperature;BME280_humidity;BME280_pressure;Samples;Min_cycle;Max_cycle;Signal;HPM_P1;HPM_P2
2023/04/28 00:01:46;;;;;;;6.80;3.03;;;;;;;-143.84;54.79;45150.00;4969982;28;20929;-68
2023/04/28 00:04:13;;;;;;;5.73;3.13;;;;;;;-143.84;54.85;45146.19;4970119;28;20473;-69
2023/04/28 00:06:41;;;;;;;6.80;3.70;;;;;;;-143.84;55.30;45169.03;4970000;28;20933;-69
2023/04/28 00:09:09;;;;;;;8.85;3.90;;;;;;;-143.84;55.50;45172.84;4969649;28;20477;-69
2023/04/28 00:11:38;;;;;;;4.30;2.90;;;;;;;-143.84;55.20;45159.50;4969855;28;20628;-69
2023/04/28 00:14:05;;;;;;;7.43;3.10;;;;;;;-143.84;55.30;45161.41;4969579;28;20277;-69
2023/04/28 00:16:32;;;;;;;5.20;3.20;;;;;;;-143.84;55.18;45178.56;4969716;28;20963;-69
2023/04/28 00:19:00;;;;;;;2.70;2.43;;;;;;;-143.84;55.43;45148.09;4969588;28;20482;-69
2023/04/28 00:21:27;;;;;;;10.30;3.70;;;;;;;-143.84;55.33;45172.84;4969592;28;20484;-69
2023/04/28 00:23:54;;;;;;;10.87;2.70;;;;;;;-143.84;55.80;45199.50;4969835;28;20454;-69
2023/04/28 00:26:21;;;;;;;5.70;3.30;;;;;;;-143.84;55.83;45142.38;4973049;28;20442;-69
2023/04/28 00:28:50;;;;;;;6.47;3.03;;;;;;;-143.84;56.18;45163.31;4972951;28;20442;-69
2023/04/28 00:31:17;;;;;;;8.80;3.87;;;;;;;-143.84;56.39;45169.03;4973085;28;20441;-69
2023/04/28 00:33:44;;;;;;;6.70;3.87;;;;;;;-143.84;56.31;45163.31;4972898;28;20485;-69
2023/04/28 00:36:12;;;;;;;6.33;3.10;;;;;;;-143.84;56.36;45176.66;4973070;28;20932;-69
2023/04/28 00:38:39;;;;;;;7.57;3.63;;;;;;;-143.84;57.20;45163.31;4973083;28;20460;-69
2023/04/28 00:41:06;;;;;;;3.50;3.10;;;;;;;-143.84;57.46;45159.50;4973051;28;20803;-69
2023/04/28 00:43:44;;;;;;;8.03;3.57;;;;;;;-143.84;58.10;45167.13;4972602;28;20964;-69
2023/04/28 00:46:20;;;;;;;19.75;3.95;;;;;;;-143.84;58.62;45184.25;4972804;28;20523;-69
2023/04/28 00:48:47;;;;;;;6.93;3.10;;;;;;;-143.84;59.17;45169.03;4972651;28;20194;-68
2023/04/28 00:51:14;;;;;;;6.38;3.63;;;;;;;-143.84;58.82;45167.13;4972829;28;20442;-69
2023/04/28 00:53:42;;;;;;;4.00;2.70;;;;;;;-143.84;59.04;45159.50;4972483;28;20226;-69
2023/04/28 00:56:10;;;;;;;17.50;4.00;;;;;;;-143.84;58.73;45159.50;4972810;28;20445;-69
2023/04/28 00:58:37;;;;;;;5.37;3.57;;;;;;;-143.84;58.90;45184.25;4972566;28;20287;-69
2023/04/28 01:01:05;;;;;;;3.37;3.07;;;;;;;-143.84;58.96;45144.28;4972572;28;20438;-69
2023/04/28 01:03:36;;;;;;;6.37;3.50;;;;;;;-143.84;59.04;45163.31;4972681;28;21026;-69
2023/04/28 01:06:05;;;;;;;11.50;3.97;;;;;;;-143.84;58.64;45180.47;4972466;28;20940;-69
2023/04/28 01:08:33;;;;;;;7.23;3.73;;;;;;;-143.84;58.81;45159.50;4972409;28;20843;-69
2023/04/28 01:11:00;;;;;;;8.27;3.57;;;;;;;-143.84;58.53;45174.75;4972349;28;20446;-69
2023/04/28 01:13:28;;;;;;;6.13;3.50;;;;;;;-143.84;58.67;45161.41;4972152;28;20433;-69
2023/04/28 01:15:55;;;;;;;4.47;3.80;;;;;;;-143.84;58.69;45153.81;4972115;28;20480;-69
2023/04/28 01:18:23;;;;;;;8.90;4.03;;;;;;;-143.84;58.79;45170.94;4972381;28;20512;-69
2023/04/28 01:20:51;;;;;;;8.90;3.70;;;;;;;-143.84;58.38;45189.97;4972112;28;20442;-69
2023/04/28 01:23:18;;;;;;;6.40;3.27;;;;;;;-143.84;58.23;45195.69;4972333;28;20471;-69
2023/04/28 01:25:47;;;;;;;5.10;3.67;;;;;;;-143.84;57.89;45148.09;4971834;28;20446;-69
2023/04/28 01:28:14;;;;;;;5.88;3.42;;;;;;;-143.84;58.40;45163.31;4972120;28;20500;-69
2023/04/28 01:30:41;;;;;;;7.20;3.73;;;;;;;-143.84;57.42;45172.84;4972215;28;20309;-69
2023/04/28 01:33:08;;;;;;;4.47;4.07;;;;;;;-143.84;57.93;45151.91;4971704;28;20434;-70
2023/04/28 01:35:35;;;;;;;4.38;3.80;;;;;;;-143.84;57.22;45195.69;4971143;28;20492;-70
2023/04/28 01:38:03;;;;;;;4.67;2.80;;;;;;;-143.84;56.96;45186.16;4971911;28;20206;-70
2023/04/28 01:40:30;;;;;;;6.07;3.90;;;;;;;-143.84;56.45;45142.38;4971539;28;20437;-70
2023/04/28 01:42:58;;;;;;;6.90;4.20;;;;;;;-143.84;56.34;45159.50;4971746;28;20446;-70
2023/04/28 01:45:25;;;;;;;6.50;3.63;;;;;;;-143.84;55.91;45163.31;4971884;28;20554;-70
2023/04/28 01:47:52;;;;;;;10.20;3.80;;;;;;;-143.84;56.17;45178.56;4971490;28;20438;-70
2023/04/28 01:50:19;;;;;;;7.23;3.27;;;;;;;-143.84;56.91;45167.13;4971751;28;20508;-70
2023/04/28 01:52:46;;;;;;;5.67;4.10;;;;;;;-143.84;56.77;45195.69;4971450;28;21008;-70
2023/04/28 01:55:14;;;;;;;9.95;3.78;;;;;;;-143.84;56.87;45157.59;4971249;28;21128;-70
2023/04/28 01:57:41;;;;;;;17.58;3.75;;;;;;;-143.84;57.46;45174.75;4971483;28;20564;-69
2023/04/28 02:00:11;;;;;;;7.53;4.35;;;;;;;-143.84;56.72;45184.25;4971502;28;20206;-69
2023/04/28 02:02:38;;;;;;;11.40;4.30;;;;;;;-143.84;56.76;45178.56;4971515;28;20203;-69
2023/04/28 02:05:05;;;;;;;5.40;3.90;;;;;;;-143.84;56.94;45193.78;4971270;28;20969;-70
2023/04/28 02:07:32;;;;;;;8.80;3.58;;;;;;;-143.84;56.79;45148.09;4971117;28;20441;-69
2023/04/28 02:09:59;;;;;;;5.17;3.43;;;;;;;-143.84;56.48;45193.78;4971074;28;20881;-69
2023/04/28 02:12:27;;;;;;;7.53;3.83;;;;;;;-143.84;56.65;45180.47;4971696;28;20445;-69
2023/04/28 02:14:54;;;;;;;11.00;4.10;;;;;;;-143.84;57.16;45167.13;4971202;28;20484;-69
2023/04/28 02:17:22;;;;;;;7.70;4.05;;;;;;;-143.84;56.79;45169.03;4971239;28;20453;-69
2023/04/28 02:19:55;;;;;;;5.10;3.73;;;;;;;-143.84;56.95;45161.41;4970961;28;20657;-70
2023/04/28 02:22:22;;;;;;;14.40;4.23;;;;;;;-143.84;57.13;45167.13;4971314;28;20457;-70
2023/04/28 02:24:49;;;;;;;9.03;4.20;;;;;;;-143.84;56.99;45174.75;4971080;28;20445;-70
2023/04/28 02:27:16;;;;;;;8.90;4.20;;;;;;;-143.84;56.79;45180.47;4971191;28;20448;-70
2023/04/28 02:29:43;;;;;;;7.00;3.70;;;;;;;-143.84;56.85;45163.31;4970993;28;20515;-70
2023/04/28 02:32:10;;;;;;;4.05;3.45;;;;;;;-143.84;56.57;45176.66;4971108;28;20441;-70
2023/04/28 02:34:39;;;;;;;6.00;4.57;;;;;;;-143.84;56.26;45151.91;4970912;28;20226;-70
2023/04/28 02:37:06;;;;;;;4.00;3.33;;;;;;;-143.84;55.95;45161.41;4970710;28;20447;-70
2023/04/28 02:39:33;;;;;;;8.17;4.27;;;;;;;-143.84;56.33;45197.59;4970654;28;20504;-70
2023/04/28 02:42:01;;;;;;;8.37;3.63;;;;;;;-143.84;55.91;45146.19;4970770;28;20500;-70
2023/04/28 02:44:28;;;;;;;5.60;3.60;;;;;;;-143.84;56.78;45189.97;4970493;28;20442;-70
2023/04/28 02:46:55;;;;;;;11.33;4.50;;;;;;;-143.84;56.89;45163.31;4970523;28;20457;-70
2023/04/28 02:49:23;;;;;;;7.53;4.30;;;;;;;-143.84;56.71;45163.31;4970554;28;20449;-69
2023/04/28 02:51:51;;;;;;;5.77;3.60;;;;;;;-143.84;56.82;45165.22;4970560;28;20442;-69
2023/04/28 02:54:26;;;;;;;9.00;3.80;;;;;;;-143.84;56.72;45186.16;4970568;28;20481;-69
2023/04/28 02:56:53;;;;;;;6.83;4.50;;;;;;;-143.84;57.15;45218.53;4970639;28;20480;-69
2023/04/28 02:59:20;;;;;;;4.47;4.00;;;;;;;-143.84;56.45;45172.84;4970403;28;20503;-69
2023/04/28 03:01:47;;;;;;;7.63;4.53;;;;;;;-143.84;56.65;45161.41;4970275;28;20444;-69
2023/04/28 03:04:14;;;;;;;8.40;3.80;;;;;;;-143.84;56.39;45163.31;4970264;28;20528;-70
2023/04/28 03:06:42;;;;;;;11.65;4.28;;;;;;;-143.84;56.08;45165.22;4970679;28;20445;-70
2023/04/28 03:09:11;;;;;;;10.07;4.43;;;;;;;-143.84;55.54;45170.94;4970333;28;20254;-69
2023/04/28 03:11:38;;;;;;;9.30;4.28;;;;;;;-143.84;55.42;45165.22;4970027;28;20453;-69
2023/04/28 03:14:05;;;;;;;9.70;3.83;;;;;;;-143.84;55.25;45155.69;4970192;28;20199;-70
2023/04/28 03:16:33;;;;;;;3.67;3.33;;;;;;;-143.84;56.88;45186.16;4970279;28;20472;-70
2023/04/28 03:19:00;;;;;;;7.03;3.80;;;;;;;-143.84;55.24;45151.91;4969994;28;20489;-70
2023/04/28 03:21:27;;;;;;;6.73;4.30;;;;;;;-143.84;55.57;45174.75;4970393;28;20451;-71
2023/04/28 03:23:54;;;;;;;11.27;4.57;;;;;;;-143.84;55.65;45159.50;4970108;28;20508;-71
2023/04/28 03:26:23;;;;;;;8.13;3.50;;;;;;;-143.84;54.74;45167.13;4970209;28;20430;-70
2023/04/28 03:28:50;;;;;;;6.07;3.65;;;;;;;-143.84;54.24;45188.06;4969846;28;20230;-70
2023/04/28 03:31:17;;;;;;;8.82;4.25;;;;;;;-143.84;53.88;45186.16;4969191;28;20264;-70
2023/04/28 03:33:46;;;;;;;5.82;3.53;;;;;;;-143.84;53.05;45195.69;4969412;28;20277;-70
2023/04/28 03:36:13;;;;;;;5.18;3.75;;;;;;;-143.84;55.23;45169.03;4969329;28;20320;-70
2023/04/28 03:38:40;;;;;;;6.00;4.43;;;;;;;-143.84;54.45;45148.09;4969548;28;20194;-70
2023/04/28 03:41:07;;;;;;;11.53;4.17;;;;;;;-143.84;53.49;45178.56;4969521;28;20207;-69
2023/04/28 03:43:36;;;;;;;7.35;3.80;;;;;;;-143.84;52.87;45176.66;4969721;28;20453;-69
2023/04/28 03:46:03;;;;;;;4.60;4.20;;;;;;;-143.84;51.04;45129.03;4969651;28;20210;-70
2023/04/28 03:48:31;;;;;;;8.53;3.70;;;;;;;-143.84;50.38;45186.16;4969164;28;20438;-69
2023/04/28 03:50:58;;;;;;;8.10;4.13;;;;;;;-143.84;48.55;45155.69;4956072;28;20449;-69
2023/04/28 03:53:25;;;;;;;4.65;4.13;;;;;;;-143.84;47.48;45148.09;4970148;28;20441;-69
2023/04/28 03:55:52;;;;;;;4.30;3.50;;;;;;;-143.84;45.90;45153.81;4969833;28;20222;-69
2023/04/28 03:58:19;;;;;;;5.18;3.63;;;;;;;-143.84;44.96;45142.38;4969940;28;20468;-70
2023/04/28 04:00:48;;;;;;;6.27;3.70;;;;;;;-143.84;42.70;45117.63;4973225;28;20198;-69
2023/04/28 04:03:15;;;;;;;6.30;3.30;;;;;;;-143.84;42.14;45167.13;4973476;28;20453;-69
2023/04/28 04:05:42;;;;;;;10.13;4.07;;;;;;;-143.84;41.63;45140.47;4973646;28;20511;-69
2023/04/28 04:08:09;;;;;;;4.60;3.30;;;;;;;-143.84;41.18;45142.38;4973599;28;20442;-69
2023/04/28 04:10:36;;;;;;;5.70;4.00;;;;;;;-143.84;41.03;45148.09;4973320;28;21087;-69
2023/04/28 04:13:03;;;;;;;5.60;4.50;;;;;;;-143.84;40.34;45140.47;4973387;28;20440;-69
2023/04/28 04:15:31;;;;;;;6.17;3.67;;;;;;;-143.84;40.27;45121.44;4973451;28;20489;-69
2023/04/28 04:17:59;;;;;;;4.03;3.30;;;;;;;-143.84;40.06;45132.84;4973177;28;20453;-69
2023/04/28 04:20:26;;;;;;;4.30;3.22;;;;;;;-143.84;39.92;45138.56;4973231;28;20900;-69
2023/04/28 04:22:53;;;;;;;8.80;3.55;;;;;;;-143.84;39.77;45125.22;4973026;28;20602;-70
2023/04/28 04:25:21;;;;;;;3.93;3.63;;;;;;;-143.84;39.87;45134.75;4973107;28;20221;-70
2023/04/28 04:27:48;;;;;;;9.17;3.70;;;;;;;-143.84;39.42;45127.13;4973417;28;20508;-69
2023/04/28 04:30:15;;;;;;;6.90;3.77;;;;;;;-143.84;39.68;45146.19;4973191;28;20454;-68
2023/04/28 04:32:42;;;;;;;4.83;3.00;;;;;;;-143.84;39.26;45130.94;4972895;28;20445;-68
2023/04/28 04:35:11;;;;;;;8.27;3.17;;;;;;;-143.84;39.43;45125.22;4972881;28;20900;-67
2023/04/28 04:37:38;;;;;;;9.73;3.53;;;;;;;-143.84;39.10;45111.91;4972814;28;20450;-67
2023/04/28 04:40:06;;;;;;;5.77;3.80;;;;;;;-143.84;39.20;45151.91;4972817;28;20449;-67
2023/04/28 04:42:33;;;;;;;4.20;3.13;;;;;;;-143.84;38.90;45129.03;4972870;28;20963;-67
2023/04/28 04:45:00;;;;;;;6.40;3.33;;;;;;;-143.84;38.57;45125.22;4972729;28;20462;-68
2023/04/28 04:47:28;;;;;;;5.40;2.53;;;;;;;-143.84;38.38;45111.91;4972734;28;20478;-67
2023/04/28 04:49:55;;;;;;;7.87;3.93;;;;;;;-143.84;37.84;45127.13;4972495;28;21032;-67
2023/04/28 04:52:23;;;;;;;5.37;2.80;;;;;;;-143.84;37.59;45098.56;4972629;28;20445;-68
2023/04/28 04:54:51;;;;;;;6.33;3.00;;;;;;;-143.84;37.75;45098.56;4972269;28;20477;-67
2023/04/28 04:57:18;;;;;;;3.20;3.00;;;;;;;-143.84;37.13;45111.91;4972557;28;20508;-67
2023/04/28 04:59:45;;;;;;;6.13;3.10;;;;;;;-143.84;37.07;45110.00;4972663;28;20453;-67
2023/04/28 05:02:12;;;;;;;5.33;2.83;;;;;;;-143.84;37.10;45119.53;4972721;28;20203;-67
2023/04/28 05:04:39;;;;;;;5.57;2.50;;;;;;;-143.84;36.41;45142.38;4972452;28;20512;-67
2023/04/28 05:07:06;;;;;;;4.37;3.07;;;;;;;-143.84;36.39;45085.25;4972442;28;20946;-67
2023/04/28 05:09:35;;;;;;;3.00;2.67;;;;;;;-143.84;36.36;45110.00;4972391;28;20479;-67
2023/04/28 05:12:02;;;;;;;3.70;2.70;;;;;;;-143.84;35.69;45104.28;4971135;28;20666;-67
2023/04/28 05:14:29;;;;;;;4.97;2.58;;;;;;;-143.84;35.90;45090.97;4972281;28;20445;-67
2023/04/28 05:16:56;;;;;;;4.22;2.60;;;;;;;-143.84;35.49;45090.97;4972438;28;20253;-67
2023/04/28 05:19:24;;;;;;;9.43;2.93;;;;;;;-143.84;35.11;45098.56;4972064;28;20669;-67
2023/04/28 05:21:53;;;;;;;6.03;2.37;;;;;;;-143.84;34.71;45117.63;4972329;28;21007;-67
2023/04/28 05:24:22;;;;;;;6.27;2.40;;;;;;;-143.84;34.84;45102.38;4972436;28;20484;-67
2023/04/28 05:26:51;;;;;;;7.43;2.60;;;;;;;-143.84;34.78;45110.00;4972011;28;20448;-67
2023/04/28 05:29:18;;;;;;;6.10;3.40;;;;;;;-143.84;34.22;45111.91;4972147;28;20450;-67
2023/04/28 05:31:45;;;;;;;6.83;2.60;;;;;;;-143.84;34.28;45077.63;4972052;28;20934;-67
2023/04/28 05:34:12;;;;;;;3.70;2.00;;;;;;;-143.84;34.16;45096.66;4971820;28;20449;-67
2023/04/28 05:36:40;;;;;;;4.50;2.17;;;;;;;-143.84;34.14;45108.09;4972064;28;21073;-67
2023/04/28 05:39:07;;;;;;;6.60;2.87;;;;;;;-143.84;33.97;45115.72;4972239;28;20443;-67
2023/04/28 05:41:35;;;;;;;8.20;2.70;;;;;;;-143.84;33.78;45098.56;4971783;28;20444;-67
2023/04/28 05:44:04;;;;;;;7.80;3.00;;;;;;;-143.84;33.78;45111.91;4971972;28;20497;-67
2023/04/28 05:46:31;;;;;;;5.60;2.70;;;;;;;-143.84;33.49;45096.66;4971687;28;20444;-67
2023/04/28 05:48:59;;;;;;;4.03;2.37;;;;;;;-143.84;34.13;45100.47;4971909;28;20448;-67
2023/04/28 05:51:26;;;;;;;10.77;3.77;;;;;;;-143.84;33.83;45094.78;4971666;28;20438;-67
2023/04/28 05:53:54;;;;;;;6.47;2.30;;;;;;;-143.84;33.74;45098.56;4971672;28;20441;-67
2023/04/28 05:56:21;;;;;;;5.73;2.50;;;;;;;-143.84;33.69;45096.66;4971702;28;20512;-67
2023/04/28 05:58:49;;;;;;;3.03;2.20;;;;;;;-143.84;33.54;45102.38;4971576;28;20450;-67
2023/04/28 06:01:18;;;;;;;5.83;2.50;;;;;;;-143.84;33.20;45104.28;4971346;28;20921;-67
2023/04/28 06:03:45;;;;;;;4.70;2.43;;;;;;;-143.84;33.52;45094.78;4971546;28;20445;-67
2023/04/28 06:06:13;;;;;;;3.92;2.83;;;;;;;-143.84;33.19;45081.44;4971192;28;20452;-67
2023/04/28 06:08:40;;;;;;;4.90;2.30;;;;;;;-143.84;33.08;45073.81;4971417;28;20208;-67
2023/04/28 06:11:07;;;;;;;3.72;2.17;;;;;;;-143.84;33.69;45100.47;4971407;28;20855;-67
2023/04/28 06:13:34;;;;;;;5.40;2.10;;;;;;;-143.84;33.36;45100.47;4971223;28;20255;-67
2023/04/28 06:16:01;;;;;;;4.87;2.40;;;;;;;-143.84;33.12;45085.25;4970957;28;20234;-67
2023/04/28 06:18:31;;;;;;;4.50;2.83;;;;;;;-143.84;33.46;45100.47;4971145;28;20550;-67
2023/04/28 06:20:58;;;;;;;4.40;2.30;;;;;;;-143.84;33.01;45100.47;4971095;28;20457;-67
2023/04/28 06:23:25;;;;;;;8.43;2.75;;;;;;;-143.84;33.64;45113.81;4970830;28;20448;-68
2023/04/28 06:25:52;;;;;;;6.23;2.50;;;;;;;-143.84;33.45;45094.78;4971105;28;20203;-67
2023/04/28 06:28:19;;;;;;;3.97;2.13;;;;;;;-143.84;34.04;45075.72;4971287;28;20446;-67
2023/04/28 06:30:46;;;;;;;6.60;2.00;;;;;;;-143.84;33.97;45081.44;4970883;28;20501;-67
2023/04/28 06:33:13;;;;;;;3.83;2.23;;;;;;;-143.84;33.43;45090.97;4970744;28;20504;-67
2023/04/28 06:35:42;;;;;;;7.20;2.27;;;;;;;-143.84;33.17;45090.97;4970640;28;20485;-66
2023/04/28 06:38:09;;;;;;;4.27;1.97;;;;;;;-143.84;32.54;45079.53;4970908;28;20502;-68
2023/04/28 06:40:36;;;;;;;4.20;2.07;;;;;;;-143.84;33.00;45092.88;4970735;28;20536;-69
2023/04/28 06:43:04;;;;;;;3.70;2.00;;;;;;;-143.84;33.29;45115.72;4970892;28;21031;-68
2023/04/28 06:45:31;;;;;;;9.80;2.13;;;;;;;-143.84;33.64;45089.06;4970897;28;20468;-69
2023/04/28 06:47:58;;;;;;;6.25;2.53;;;;;;;-143.84;32.94;45083.34;4970679;28;20459;-68
2023/04/28 06:50:26;;;;;;;2.63;1.90;;;;;;;-143.84;33.14;45090.97;4970843;28;20211;-68
2023/04/28 06:52:54;;;;;;;8.63;2.17;;;;;;;-143.84;33.11;45092.88;4970785;28;20891;-68
2023/04/28 06:55:22;;;;;;;4.87;2.17;;;;;;;-143.84;32.71;45104.28;4970810;28;20280;-68
2023/04/28 06:57:49;;;;;;;5.90;1.90;;;;;;;-143.84;32.86;45081.44;4970367;28;20474;-69
2023/04/28 07:00:17;;;;;;;2.97;2.00;;;;;;;-143.84;32.58;45081.44;4970672;28;20452;-69
2023/04/28 07:02:44;;;;;;;1.90;1.70;;;;;;;-143.84;32.78;45102.38;4970507;28;20206;-68
2023/04/28 07:05:11;;;;;;;3.33;2.70;;;;;;;-143.84;32.21;45060.50;4970531;28;20451;-70
2023/04/28 07:07:38;;;;;;;1.87;1.50;;;;;;;-143.84;31.91;45108.09;4970378;28;20496;-67
2023/04/28 07:10:08;;;;;;;3.97;2.20;;;;;;;-143.84;32.04;45081.44;4970448;28;20571;-68
2023/04/28 07:12:35;;;;;;;2.60;1.63;;;;;;;-143.84;32.23;45089.06;4970719;28;20526;-68
2023/04/28 07:15:02;;;;;;;9.50;1.85;;;;;;;-143.84;32.57;45096.66;4970186;28;20209;-68
2023/04/28 07:17:29;;;;;;;8.67;1.97;;;;;;;-143.84;33.05;45098.56;4970466;28;20592;-67
2023/04/28 07:19:56;;;;;;;2.27;1.90;;;;;;;-143.84;32.89;45075.72;4969064;28;21090;-67
2023/04/28 07:22:23;;;;;;;8.50;2.40;;;;;;;-143.84;32.60;45108.09;4970173;28;20446;-67
2023/04/28 07:24:50;;;;;;;2.90;2.30;;;;;;;-143.84;32.81;45113.81;4970185;28;20890;-67
2023/04/28 07:27:19;;;;;;;3.00;1.80;;;;;;;-143.84;32.34;45090.97;4970425;28;20457;-67
2023/04/28 07:29:46;;;;;;;12.90;1.77;;;;;;;-143.84;32.71;45089.06;4970160;28;20445;-67
2023/04/28 07:32:13;;;;;;;2.80;1.50;;;;;;;-143.84;32.82;45119.53;4970208;28;20528;-67
2023/04/28 07:34:40;;;;;;;9.40;1.70;;;;;;;-143.84;32.68;45098.56;4972138;28;20446;-67
2023/04/28 07:37:07;;;;;;;2.50;1.73;;;;;;;-143.84;32.43;45087.16;4974091;28;20937;-67
2023/04/28 07:39:34;;;;;;;7.72;1.70;;;;;;;-143.84;32.51;45073.81;4974164;28;20534;-67
2023/04/28 07:42:02;;;;;;;5.23;2.30;;;;;;;-143.84;31.59;45070.00;4973895;28;20211;-67
2023/04/28 07:44:31;;;;;;;6.78;1.60;;;;;;;-143.84;31.24;45073.81;4973979;28;20462;-67
2023/04/28 07:46:59;;;;;;;20.60;2.00;;;;;;;-143.84;32.53;45090.97;4973772;28;20212;-67
2023/04/28 07:49:27;;;;;;;4.87;1.60;;;;;;;-143.84;32.18;45081.44;4972809;28;20446;-67
2023/04/28 07:51:55;;;;;;;6.80;1.63;;;;;;;-143.84;31.97;45090.97;4972946;28;20441;-67
2023/04/28 07:54:22;;;;;;;2.60;1.50;;;;;;;-143.84;32.59;45110.00;4973328;28;20482;-67
2023/04/28 07:56:50;;;;;;;4.00;1.90;;;;;;;-143.84;32.00;45077.63;4972872;28;20852;-67
2023/04/28 07:59:17;;;;;;;11.57;1.80;;;;;;;-143.84;31.53;45068.13;4973110;28;20199;-67
2023/04/28 08:01:45;;;;;;;3.87;1.60;;;;;;;-143.84;32.72;45079.53;4973603;28;20944;-67
2023/04/28 08:04:13;;;;;;;8.10;1.90;;;;;;;-143.84;32.26;45092.88;4973533;28;20454;-67
2023/04/28 08:06:40;;;;;;;9.27;2.70;;;;;;;-143.84;31.46;45073.81;4973991;28;20453;-67
2023/04/28 08:09:07;;;;;;;3.63;1.63;;;;;;;-143.84;31.83;45083.34;4973847;28;20444;-67
2023/04/28 08:11:34;;;;;;;9.63;2.00;;;;;;;-143.84;32.06;45060.50;4973502;28;20452;-67
2023/04/28 08:14:02;;;;;;;7.15;1.60;;;;;;;-143.84;31.41;45090.97;4973402;28;20508;-69
2023/04/28 08:16:29;;;;;;;7.23;2.20;;;;;;;-143.84;31.21;45073.81;4973349;28;20429;-66
2023/04/28 08:18:58;;;;;;;2.58;1.85;;;;;;;-143.84;31.29;45064.31;4973043;28;20543;-69
2023/04/28 08:21:25;;;;;;;3.20;1.57;;;;;;;-143.84;31.49;45100.47;4973325;28;20297;-66
2023/04/28 08:23:52;;;;;;;3.73;2.10;;;;;;;-143.84;31.52;45073.81;4973338;28;21057;-65
2023/04/28 08:26:20;;;;;;;2.30;2.10;;;;;;;-143.84;31.38;45068.13;4973392;28;20555;-68
2023/04/28 08:28:47;;;;;;;4.23;1.90;;;;;;;-143.84;31.24;45066.22;4973233;28;20445;-65
2023/04/28 08:31:14;;;;;;;9.90;1.93;;;;;;;-143.84;31.78;45100.47;4973100;28;21458;-65
2023/04/28 08:33:44;;;;;;;5.97;1.93;;;;;;;-143.84;31.90;45068.13;4973169;28;20454;-65
2023/04/28 08:36:13;;;;;;;5.83;1.90;;;;;;;-143.84;31.49;45092.88;4973110;28;20521;-65
2023/04/28 08:38:41;;;;;;;8.50;1.77;;;;;;;-143.84;31.41;45073.81;4972904;28;20971;-65
2023/04/28 08:41:08;;;;;;;3.20;1.63;;;;;;;-143.84;31.42;45052.88;4972907;28;20446;-65
2023/04/28 08:43:36;;;;;;;3.80;1.50;;;;;;;-143.84;30.80;45094.78;4972944;28;20441;-68
2023/04/28 08:46:07;;;;;;;4.43;2.23;;;;;;;-143.84;31.21;45077.63;4972600;28;20260;-66
2023/04/28 08:48:40;;;;;;;4.93;1.77;;;;;;;-143.84;31.19;45075.72;4972837;28;20474;-66
2023/04/28 08:51:07;;;;;;;5.75;1.90;;;;;;;-143.84;31.49;45102.38;4972566;28;20512;-68
2023/04/28 08:53:38;;;;;;;6.43;1.87;;;;;;;-143.84;31.24;45077.63;4972670;28;20202;-66
2023/04/28 08:56:07;;;;;;;3.57;1.83;;;;;;;-143.84;29.92;45070.00;4972720;28;20481;-66
2023/04/28 08:58:36;;;;;;;10.13;1.80;;;;;;;-143.84;30.15;45077.63;4972752;28;20531;-68
2023/04/28 09:01:04;;;;;;;1.93;1.67;;;;;;;-143.84;30.17;45087.16;4972541;28;20203;-65
2023/04/28 09:03:32;;;;;;;2.00;1.63;;;;;;;-143.84;30.47;45075.72;4972458;28;21234;-65
2023/04/28 09:05:59;;;;;;;4.33;1.87;;;;;;;-143.84;30.13;45066.22;4972376;28;20442;-67
2023/04/28 09:08:27;;;;;;;3.97;2.00;;;;;;;-143.84;31.57;45070.00;4972409;28;20450;-66
2023/04/28 09:11:12;;;;;;;7.53;1.80;;;;;;;-143.84;31.49;45094.78;4972283;28;20991;-66
2023/04/28 09:13:40;;;;;;;4.93;1.63;;;;;;;-143.84;31.41;45070.00;4972283;28;20461;-68
2023/04/28 09:16:07;;;;;;;7.03;1.77;;;;;;;-143.84;30.35;45070.00;4972456;28;20493;-66
2023/04/28 09:18:34;;;;;;;2.97;1.55;;;;;;;-143.84;30.01;45070.00;4972026;28;20492;-68
2023/04/28 09:21:06;;;;;;;2.20;1.50;;;;;;;-143.84;29.99;45085.25;4972150;28;20198;-66
2023/04/28 09:23:34;;;;;;;1.80;1.40;;;;;;;-143.84;30.98;45089.06;4972158;28;20447;-68
2023/04/28 09:26:03;;;;;;;5.60;1.98;;;;;;;-143.84;30.58;45075.72;4972135;28;20445;-68
2023/04/28 09:28:32;;;;;;;6.87;2.03;;;;;;;-143.84;31.51;45071.91;4971951;28;20205;-66
2023/04/28 09:30:59;;;;;;;2.80;1.73;;;;;;;-143.84;31.06;45100.47;4972181;28;20516;-65
2023/04/28 09:33:27;;;;;;;8.33;1.50;;;;;;;-143.84;31.21;45079.53;4972286;28;20443;-66
2023/04/28 09:35:54;;;;;;;2.70;1.47;;;;;;;-143.84;31.12;45056.69;4971807;28;20446;-66
2023/04/28 09:38:23;;;;;;;2.30;1.63;;;;;;;-143.84;30.47;45083.34;4971775;28;20515;-66
2023/04/28 09:40:52;;;;;;;2.60;1.63;;;;;;;-143.84;30.69;45083.34;4971946;28;20578;-65
2023/04/28 09:43:27;;;;;;;6.27;2.10;;;;;;;-143.84;31.51;45062.41;4972107;28;20863;-65
2023/04/28 09:45:56;;;;;;;6.20;1.90;;;;;;;-143.84;31.00;45098.56;4971814;28;20432;-68
2023/04/28 09:48:31;;;;;;;2.42;1.92;;;;;;;-143.84;31.16;45081.44;4971725;28;20660;-68
2023/04/28 09:50:59;;;;;;;5.13;2.10;;;;;;;-143.84;32.71;45079.53;4972078;28;20197;-65
2023/04/28 09:53:27;;;;;;;5.20;1.97;;;;;;;-143.84;31.95;45110.00;4971454;28;20450;-66
2023/04/28 09:55:56;;;;;;;2.03;1.47;;;;;;;-143.84;30.42;45077.63;4971834;28;20982;-66
2023/04/28 09:58:25;;;;;;;8.67;2.10;;;;;;;-143.84;31.22;45094.78;4970888;28;20458;-65
2023/04/28 10:00:55;;;;;;;4.20;1.70;;;;;;;-143.84;31.49;45090.97;4971320;28;20481;-66
2023/04/28 10:03:24;;;;;;;3.00;2.20;;;;;;;-143.84;31.04;45096.66;4971485;28;21085;-66
2023/04/28 10:05:52;;;;;;;13.53;2.30;;;;;;;-143.84;32.33;45054.78;4971756;28;20501;-66
2023/04/28 10:08:20;;;;;;;5.20;1.90;;;;;;;-143.84;30.81;45077.63;4971249;28;20449;-66
2023/04/28 10:10:49;;;;;;;7.73;2.30;;;;;;;-143.84;31.46;45073.81;4971372;28;20952;-65
2023/04/28 10:13:18;;;;;;;7.20;1.33;;;;;;;-143.84;30.38;45075.72;4971077;28;20456;-66
2023/04/28 10:15:45;;;;;;;2.10;1.60;;;;;;;-143.84;30.62;45083.34;4971086;28;20338;-66
2023/04/28 10:18:14;;;;;;;4.70;1.87;;;;;;;-143.84;31.34;45081.44;4971165;28;21195;-65
2023/04/28 10:20:44;;;;;;;6.35;1.52;;;;;;;-143.84;30.65;45058.59;4971339;28;20457;-67
2023/04/28 10:23:42;;;;;;;2.70;1.70;;;;;;;-143.84;31.47;45056.69;4971007;28;20293;-66
2023/04/28 10:26:12;;;;;;;10.23;2.47;;;;;;;-143.84;30.46;45110.00;4971340;28;20932;-66
2023/04/28 10:28:47;;;;;;;1.50;1.33;;;;;;;-143.84;30.85;45068.13;4971212;28;20272;-66
2023/04/28 10:31:17;;;;;;;3.55;1.45;;;;;;;-143.84;30.33;45087.16;4970828;28;20254;-65
2023/04/28 10:33:46;;;;;;;9.10;1.77;;;;;;;-143.84;30.62;45071.91;4971033;28;20728;-66
2023/04/28 10:36:51;;;;;;;4.60;2.20;;;;;;;-143.84;30.61;45056.69;4970659;28;21042;-66
2023/04/28 10:39:18;;;;;;;5.73;1.90;;;;;;;-143.84;30.72;45070.00;4970960;28;20448;-66
2023/04/28 10:41:46;;;;;;;5.43;1.60;;;;;;;-143.84;30.81;45047.16;4970847;28;20954;-66
2023/04/28 10:44:44;;;;;;;8.40;1.50;;;;;;;-143.84;31.29;45071.91;4970695;28;20947;-66
2023/04/28 10:47:11;;;;;;;4.97;1.50;;;;;;;-143.84;31.07;45066.22;4970514;28;20446;-66
2023/04/28 10:50:11;;;;;;;4.67;1.97;;;;;;;-143.84;31.05;45043.34;4970822;28;20504;-66
2023/04/28 10:52:50;;;;;;;10.20;1.60;;;;;;;-143.84;29.96;45073.81;4970808;28;20677;-66
2023/04/28 10:55:35;;;;;;;6.10;1.80;;;;;;;-143.84;30.79;45087.16;4970575;28;20512;-66
2023/04/28 10:58:40;;;;;;;7.43;1.48;;;;;;;-143.84;29.99;45068.13;4969424;28;21022;-66
2023/04/28 11:01:28;;;;;;;17.60;2.03;;;;;;;-143.84;29.64;45043.34;4970274;28;20206;-66
2023/04/28 11:14:56;;;;;;;2.20;1.70;;;;;;;-143.84;30.22;45068.13;5168570;27;20546;-60
2023/04/28 11:17:40;;;;;;;2.00;1.50;;;;;;;-143.84;31.49;45056.69;5168728;27;20441;-60
2023/04/28 11:20:12;;;;;;;6.23;1.97;;;;;;;-143.84;30.38;45092.88;5168775;27;20998;-61
2023/04/28 11:22:40;;;;;;;3.93;1.90;;;;;;;-143.84;30.29;45064.31;5168422;27;20476;-61
2023/04/28 11:25:08;;;;;;;5.73;1.93;;;;;;;-143.84;30.50;45039.53;5168390;27;20540;-61
2023/04/28 11:27:36;;;;;;;7.67;1.80;;;;;;;-143.84;30.62;45056.69;5168749;27;20428;-61
2023/04/28 11:30:19;;;;;;;2.90;1.73;;;;;;;-143.84;30.44;45060.50;5168616;27;20440;-61
2023/04/28 11:32:50;;;;;;;1.83;1.67;;;;;;;-143.84;30.35;45085.25;5168209;27;20819;-61
2023/04/28 11:35:18;;;;;;;5.07;1.80;;;;;;;-143.84;30.68;45079.53;5168651;27;20437;-61